Time;durP1;ratioP1;P1;durP2;ratioP2;P2;SDS_P1;SDS_P2;PMS_P1;PMS_P2;Temp;Humidity;BMP_temperature;BMP_pressure;BME280_temperature;BME280_humidity;BME280_pressure;Samples;Min_cycle;Max_cycle;Signal;HPM_P1;HPM_P2
2023/07/07 00:00:35;;;;;;;15.25;13.85;;;19.20;99.90;;;;;;5289780;28;20027;-71
2023/07/07 00:03:06;;;;;;;14.45;12.52;;;19.30;99.90;;;;;;5289834;28;20020;-71
2023/07/07 00:05:36;;;;;;;14.48;13.13;;;19.40;99.90;;;;;;5289575;28;20387;-71
2023/07/07 00:08:07;;;;;;;15.77;14.25;;;19.30;99.90;;;;;;5289730;28;20024;-71
2023/07/07 00:10:38;;;;;;;14.23;13.02;;;19.50;99.90;;;;;;5289589;28;20012;-72
2023/07/07 00:13:11;;;;;;;16.00;14.30;;;19.40;99.90;;;;;;5289561;28;20490;-71
2023/07/07 00:15:44;;;;;;;15.45;13.95;;;19.10;99.90;;;;;;5289633;28;20016;-71
2023/07/07 00:18:26;;;;;;;14.20;12.77;;;19.20;99.90;;;;;;5289642;28;20023;-71
2023/07/07 00:21:01;;;;;;;15.15;13.38;;;19.20;99.90;;;;;;5289568;28;20016;-71
2023/07/07 00:23:32;;;;;;;12.60;11.52;;;19.10;99.90;;;;;;5289482;28;20034;-71
2023/07/07 00:26:06;;;;;;;11.80;10.65;;;19.00;99.90;;;;;;5289666;28;20475;-71
2023/07/07 00:28:37;;;;;;;12.27;11.07;;;19.10;99.90;;;;;;5289739;28;20020;-71
2023/07/07 00:31:07;;;;;;;12.40;10.65;;;19.20;99.90;;;;;;5289456;28;20032;-71
2023/07/07 00:33:38;;;;;;;13.73;12.52;;;19.10;99.90;;;;;;5289600;28;20585;-71
2023/07/07 00:36:10;;;;;;;12.70;11.65;;;19.00;99.90;;;;;;5289385;28;20034;-71
2023/07/07 00:38:40;;;;;;;11.90;10.88;;;19.10;99.90;;;;;;5289271;28;20031;-71
2023/07/07 00:41:11;;;;;;;12.25;11.02;;;18.90;99.90;;;;;;5289207;28;20356;-71
2023/07/07 00:44:06;;;;;;;11.77;10.68;;;19.10;99.90;;;;;;5289244;28;20031;-71
2023/07/07 00:46:38;;;;;;;11.52;10.40;;;19.10;99.90;;;;;;5289154;28;20032;-71
2023/07/07 00:49:18;;;;;;;12.07;9.98;;;19.10;99.90;;;;;;5289147;28;20459;-71
2023/07/07 00:51:49;;;;;;;;;;;19.00;99.90;;;;;;5289070;28;20382;-71
2023/07/07 00:54:25;;;;;;;11.70;10.52;;;19.00;99.90;;;;;;5288759;28;19920;-71
2023/07/07 00:56:57;;;;;;;10.80;9.90;;;19.00;99.90;;;;;;5289117;28;20367;-71
2023/07/07 00:59:35;;;;;;;10.77;9.73;;;19.20;99.90;;;;;;5289007;28;20068;-71
2023/07/07 01:02:12;;;;;;;11.48;10.48;;;19.10;99.90;;;;;;5288947;28;20023;-71
2023/07/07 01:04:48;;;;;;;11.38;9.88;;;18.80;99.90;;;;;;5288954;28;20092;-71
2023/07/07 01:07:26;;;;;;;11.35;10.35;;;19.00;99.90;;;;;;5288845;28;20060;-71
2023/07/07 01:09:57;;;;;;;11.20;10.23;;;18.90;99.90;;;;;;5288929;28;20443;-71
2023/07/07 01:12:28;;;;;;;9.88;9.07;;;18.90;99.90;;;;;;5288730;28;20020;-71
2023/07/07 01:15:00;;;;;;;11.07;9.98;;;18.90;99.90;;;;;;5288691;28;20498;-71
2023/07/07 01:17:40;;;;;;;10.55;9.57;;;18.80;99.90;;;;;;5288787;28;20016;-71
2023/07/07 01:20:15;;;;;;;10.77;9.75;;;19.00;99.90;;;;;;5288964;28;20027;-71
2023/07/07 01:23:13;;;;;;;11.80;10.70;;;18.90;99.90;;;;;;5288658;28;20066;-71
2023/07/07 01:26:14;;;;;;;10.98;10.00;;;18.70;99.90;;;;;;5288531;28;20044;-71
2023/07/07 01:29:18;;;;;;;10.43;9.52;;;18.70;99.90;;;;;;5288765;28;20102;-71
2023/07/07 01:32:06;;;;;;;10.30;9.40;;;18.80;99.90;;;;;;5288983;28;20072;-72
2023/07/07 01:34:37;;;;;;;10.10;9.30;;;18.90;99.90;;;;;;5288765;28;20092;-71
2023/07/07 01:37:08;;;;;;;10.40;9.55;;;18.80;99.90;;;;;;5288700;28;20030;-71
2023/07/07 01:39:40;;;;;;;9.98;9.07;;;18.80;99.90;;;;;;5288718;28;20035;-71
2023/07/07 01:42:43;;;;;;;10.90;9.95;;;18.60;99.90;;;;;;5288809;28;20515;-71
2023/07/07 01:45:23;;;;;;;10.93;10.02;;;18.70;99.90;;;;;;5288655;28;20082;-71
2023/07/07 01:48:30;;;;;;;10.45;9.55;;;18.70;99.90;;;;;;5288702;28;20024;-71
2023/07/07 01:51:03;;;;;;;10.38;9.48;;;18.70;99.90;;;;;;5288830;28;20055;-71
2023/07/07 01:53:36;;;;;;;10.00;9.20;;;18.60;99.90;;;;;;5288245;28;20040;-71
2023/07/07 01:56:08;;;;;;;11.02;10.13;;;18.70;99.90;;;;;;5288506;28;20039;-71
2023/07/07 01:58:41;;;;;;;9.82;8.88;;;18.50;99.90;;;;;;5288558;28;20024;-71
2023/07/07 02:01:12;;;;;;;10.27;9.48;;;18.40;99.90;;;;;;5288563;28;20024;-71
2023/07/07 02:03:43;;;;;;;11.40;10.23;;;18.40;99.90;;;;;;5289652;28;20421;-71
2023/07/07 02:06:14;;;;;;;10.65;9.85;;;18.60;99.90;;;;;;5292155;28;20386;-71
2023/07/07 02:08:45;;;;;;;11.00;10.10;;;18.60;99.90;;;;;;5292291;28;20107;-70
2023/07/07 02:11:16;;;;;;;11.15;10.15;;;18.50;99.90;;;;;;5292126;28;20023;-71
2023/07/07 02:13:46;;;;;;;10.98;10.13;;;18.50;99.90;;;;;;5292102;28;20019;-71
2023/07/07 02:16:17;;;;;;;10.98;10.00;;;18.40;99.90;;;;;;5292165;28;20120;-71
2023/07/07 02:18:48;;;;;;;11.07;10.18;;;18.60;99.90;;;;;;5292045;28;20429;-71
2023/07/07 02:21:19;;;;;;;10.98;9.98;;;18.50;99.90;;;;;;5291892;28;20028;-71
2023/07/07 02:23:50;;;;;;;11.60;10.60;;;18.40;99.90;;;;;;5291792;28;20080;-71
2023/07/07 02:26:21;;;;;;;11.35;10.38;;;18.40;99.90;;;;;;5291722;28;20031;-71
2023/07/07 02:28:52;;;;;;;10.52;9.73;;;18.50;99.90;;;;;;5291772;28;20371;-71
2023/07/07 02:31:24;;;;;;;11.38;10.30;;;18.10;99.90;;;;;;5291626;28;20031;-71
2023/07/07 02:33:55;;;;;;;10.57;9.68;;;18.40;99.90;;;;;;5291761;28;20420;-71
2023/07/07 02:36:26;;;;;;;10.70;9.77;;;18.40;99.90;;;;;;5291612;28;20067;-71
2023/07/07 02:38:56;;;;;;;10.88;9.98;;;18.20;99.90;;;;;;5291557;28;20108;-71
2023/07/07 02:41:27;;;;;;;10.25;9.45;;;18.50;99.90;;;;;;5291502;28;20030;-71
2023/07/07 02:43:58;;;;;;;10.27;9.38;;;18.30;99.90;;;;;;5291686;28;20023;-71
2023/07/07 02:46:29;;;;;;;10.90;9.90;;;18.40;99.90;;;;;;5291615;28;20032;-70
2023/07/07 02:49:00;;;;;;;9.85;8.70;;;18.20;99.90;;;;;;5291445;28;20035;-71
2023/07/07 02:51:31;;;;;;;10.25;9.40;;;18.40;99.90;;;;;;5291329;28;20106;-71
2023/07/07 02:54:02;;;;;;;11.05;10.05;;;18.40;99.90;;;;;;5291177;28;20059;-71
2023/07/07 02:56:33;;;;;;;11.38;10.32;;;18.30;99.90;;;;;;5291404;28;20036;-70
2023/07/07 02:59:05;;;;;;;11.07;10.18;;;18.20;99.90;;;;;;5291226;28;20096;-70
2023/07/07 03:01:36;;;;;;;11.05;10.10;;;18.40;99.90;;;;;;5291327;28;20031;-71
2023/07/07 03:04:06;;;;;;;10.77;9.90;;;18.40;99.90;;;;;;5291060;28;20020;-71
2023/07/07 03:06:37;;;;;;;11.85;10.60;;;18.40;99.90;;;;;;5291004;28;20035;-71
2023/07/07 03:09:09;;;;;;;13.07;12.07;;;18.60;99.90;;;;;;5290919;28;20020;-71
2023/07/07 03:11:40;;;;;;;12.52;11.52;;;18.40;99.90;;;;;;5290889;28;20027;-71
2023/07/07 03:14:11;;;;;;;11.73;10.80;;;18.60;99.90;;;;;;5290692;28;20020;-71
2023/07/07 03:16:46;;;;;;;11.32;10.30;;;18.50;99.90;;;;;;5290928;28;20448;-71
2023/07/07 03:19:19;;;;;;;11.82;10.88;;;18.50;99.90;;;;;;5290870;28;20031;-71
2023/07/07 03:21:54;;;;;;;11.55;10.25;;;18.50;99.90;;;;;;5290711;28;20110;-70
2023/07/07 03:24:25;;;;;;;11.52;10.48;;;18.40;99.90;;;;;;5290596;28;20038;-70
2023/07/07 03:26:56;;;;;;;11.13;10.07;;;18.60;99.90;;;;;;5290447;28;20035;-71
2023/07/07 03:29:26;;;;;;;10.55;9.55;;;18.50;99.90;;;;;;5290654;28;20016;-71
2023/07/07 03:31:57;;;;;;;10.43;9.63;;;18.30;99.90;;;;;;5290447;28;20378;-71
2023/07/07 03:34:28;;;;;;;10.73;9.35;;;18.60;99.90;;;;;;5290462;28;20032;-71
2023/07/07 03:36:59;;;;;;;10.57;9.68;;;18.50;99.90;;;;;;5290451;28;20100;-70
2023/07/07 03:39:29;;;;;;;10.30;9.50;;;18.70;99.90;;;;;;5290264;28;20037;-70
2023/07/07 03:42:01;;;;;;;10.07;9.05;;;18.80;99.90;;;;;;5290317;28;20020;-70
2023/07/07 03:44:32;;;;;;;9.80;8.82;;;18.80;99.90;;;;;;5290202;28;20039;-70
2023/07/07 03:47:02;;;;;;;9.70;9.00;;;18.90;99.90;;;;;;5290536;28;20027;-71
2023/07/07 03:49:33;;;;;;;9.60;8.77;;;18.90;99.90;;;;;;5290574;28;20077;-70
2023/07/07 03:52:04;;;;;;;10.20;8.88;;;19.00;99.90;;;;;;5290191;28;20035;-71
2023/07/07 03:54:35;;;;;;;10.32;9.43;;;19.00;99.90;;;;;;5289946;28;20058;-71
2023/07/07 03:57:07;;;;;;;9.20;8.30;;;19.20;99.90;;;;;;5290095;28;20031;-71
2023/07/07 03:59:38;;;;;;;9.90;9.00;;;19.20;99.90;;;;;;5271977;28;20142;-71
2023/07/07 04:02:09;;;;;;;9.73;8.48;;;19.20;99.90;;;;;;5290085;28;20114;-71
2023/07/07 04:04:40;;;;;;;10.50;9.55;;;19.30;99.90;;;;;;5289886;28;20115;-71
2023/07/07 04:07:11;;;;;;;11.07;10.10;;;19.30;99.90;;;;;;5289854;28;20030;-71
2023/07/07 04:09:41;;;;;;;11.98;11.07;;;19.40;99.90;;;;;;5289759;28;20043;-71
2023/07/07 04:12:12;;;;;;;12.40;11.30;;;19.60;99.90;;;;;;5289724;28;20027;-71
2023/07/07 04:14:43;;;;;;;12.52;11.63;;;19.50;99.90;;;;;;5289785;28;20024;-70
2023/07/07 04:17:14;;;;;;;12.38;11.23;;;19.70;99.90;;;;;;5289801;28;20447;-71
2023/07/07 04:19:44;;;;;;;12.25;11.35;;;19.80;99.90;;;;;;5289743;28;20016;-71
2023/07/07 04:22:15;;;;;;;10.38;9.57;;;20.10;99.90;;;;;;5289515;28;20379;-71
2023/07/07 04:24:46;;;;;;;11.10;10.20;;;20.00;99.90;;;;;;5289493;28;20035;-71
2023/07/07 04:27:17;;;;;;;11.15;10.25;;;20.30;99.90;;;;;;5288838;28;20522;-71
2023/07/07 04:29:47;;;;;;;10.68;9.85;;;20.40;99.90;;;;;;5289303;28;20023;-71
2023/07/07 04:32:18;;;;;;;10.80;9.95;;;20.40;99.90;;;;;;5289450;28;20509;-71
2023/07/07 04:34:49;;;;;;;11.13;10.23;;;20.60;99.90;;;;;;5289359;28;20020;-71
2023/07/07 04:37:20;;;;;;;10.88;10.05;;;20.60;99.90;;;;;;5289285;28;20073;-71
2023/07/07 04:39:51;;;;;;;11.57;10.77;;;20.70;99.90;;;;;;5289257;28;20030;-71
2023/07/07 04:42:22;;;;;;;11.93;10.82;;;21.00;99.90;;;;;;5289121;28;20125;-71
2023/07/07 04:44:53;;;;;;;10.98;10.18;;;21.00;99.90;;;;;;5289509;28;20507;-71
2023/07/07 04:47:24;;;;;;;10.75;9.80;;;21.20;99.90;;;;;;5289167;28;20022;-71
2023/07/07 04:49:56;;;;;;;10.15;9.40;;;21.40;99.90;;;;;;5289148;28;20045;-71
2023/07/07 04:52:26;;;;;;;10.10;9.07;;;21.60;99.90;;;;;;5289008;28;20459;-70
2023/07/07 04:54:57;;;;;;;11.25;9.32;;;21.80;99.90;;;;;;5288972;28;20062;-71
2023/07/07 04:57:30;;;;;;;10.73;9.48;;;22.30;99.90;;;;;;5289114;28;20058;-71
2023/07/07 05:00:03;;;;;;;9.70;8.80;;;22.70;99.90;;;;;;5289034;28;20114;-71
2023/07/07 05:02:35;;;;;;;9.93;9.07;;;22.70;99.90;;;;;;5289372;28;20374;-71
2023/07/07 05:05:06;;;;;;;9.40;8.60;;;22.80;99.90;;;;;;5289086;28;20039;-71
2023/07/07 05:07:37;;;;;;;9.48;8.27;;;22.90;99.90;;;;;;5289016;28;20020;-71
2023/07/07 05:10:08;;;;;;;9.32;7.50;;;23.10;99.90;;;;;;5289011;28;20096;-71
2023/07/07 05:12:39;;;;;;;9.52;8.63;;;23.20;99.90;;;;;;5288919;28;20019;-71
2023/07/07 05:15:10;;;;;;;9.23;8.43;;;23.50;99.90;;;;;;5289037;28;20032;-71
2023/07/07 05:17:40;;;;;;;9.07;7.70;;;23.70;99.90;;;;;;5288894;28;20081;-71
2023/07/07 05:20:11;;;;;;;9.52;8.55;;;23.90;99.90;;;;;;5288882;28;20405;-72
2023/07/07 05:22:42;;;;;;;10.10;8.13;;;24.20;99.90;;;;;;5288702;28;20461;-71
2023/07/07 05:25:13;;;;;;;9.13;8.30;;;24.10;99.90;;;;;;5288685;28;20390;-71
2023/07/07 05:27:44;;;;;;;10.00;8.48;;;24.40;99.90;;;;;;5288736;28;20376;-71
2023/07/07 05:30:14;;;;;;;9.68;8.88;;;24.50;99.90;;;;;;5288800;28;20035;-71
2023/07/07 05:32:45;;;;;;;11.93;10.88;;;24.60;99.90;;;;;;5288725;28;20363;-71
2023/07/07 05:35:16;;;;;;;11.73;10.93;;;24.80;99.90;;;;;;5288637;28;20023;-71
2023/07/07 05:37:47;;;;;;;12.52;11.32;;;25.00;99.90;;;;;;5290093;28;20089;-71
2023/07/07 05:40:17;;;;;;;12.18;10.63;;;25.20;99.90;;;;;;5292986;28;20015;-71
2023/07/07 05:42:48;;;;;;;11.20;9.48;;;25.30;99.90;;;;;;5292617;28;20463;-71
2023/07/07 05:45:19;;;;;;;11.18;9.23;;;25.50;99.90;;;;;;5292543;28;20032;-71
2023/07/07 05:47:50;;;;;;;8.57;7.68;;;25.80;99.90;;;;;;5292642;28;20371;-72
2023/07/07 05:50:21;;;;;;;8.18;7.47;;;26.10;99.90;;;;;;5292619;28;20055;-71
2023/07/07 05:52:52;;;;;;;10.52;9.63;;;26.00;99.90;;;;;;5292342;28;20032;-71
2023/07/07 05:55:28;;;;;;;9.93;8.93;;;26.00;99.90;;;;;;5292479;28;20051;-72
2023/07/07 05:58:03;;;;;;;8.93;8.15;;;26.30;99.90;;;;;;5292469;28;20058;-71
2023/07/07 06:00:34;;;;;;;11.20;9.80;;;26.30;99.90;;;;;;5292319;28;20511;-71
2023/07/07 06:03:05;;;;;;;12.55;9.60;;;26.40;99.90;;;;;;5292429;28;20047;-71
2023/07/07 06:05:36;;;;;;;11.18;9.93;;;26.70;99.90;;;;;;5292542;28;20384;-71
2023/07/07 06:08:07;;;;;;;10.35;8.07;;;26.70;99.90;;;;;;5292244;28;20035;-71
2023/07/07 06:10:38;;;;;;;9.35;8.55;;;26.80;99.90;;;;;;5292161;28;20047;-71
2023/07/07 06:13:08;;;;;;;10.82;8.30;;;27.00;99.90;;;;;;5292351;28;20035;-71
2023/07/07 06:15:39;;;;;;;10.23;9.18;;;27.10;99.90;;;;;;5292446;28;20043;-71
2023/07/07 06:18:10;;;;;;;12.27;8.65;;;27.10;99.90;;;;;;5292512;28;20031;-71
2023/07/07 06:20:41;;;;;;;9.50;8.73;;;27.30;99.90;;;;;;5292033;28;20485;-71
2023/07/07 06:23:12;;;;;;;9.98;9.25;;;27.40;99.90;;;;;;5291997;28;20066;-71
2023/07/07 06:25:43;;;;;;;8.10;7.32;;;27.40;99.90;;;;;;5291873;28;20047;-71
2023/07/07 06:28:17;;;;;;;9.88;8.13;;;27.50;99.90;;;;;;5291906;28;20065;-71
2023/07/07 06:30:49;;;;;;;8.00;7.20;;;27.60;99.90;;;;;;5291815;28;20027;-71
2023/07/07 06:33:21;;;;;;;8.27;7.53;;;27.80;99.90;;;;;;5291954;28;20028;-71
2023/07/07 06:35:52;;;;;;;6.60;6.10;;;27.80;99.90;;;;;;5291792;28;20025;-71
2023/07/07 06:38:23;;;;;;;8.70;6.45;;;27.80;99.90;;;;;;5291717;28;20031;-71
2023/07/07 06:40:54;;;;;;;7.88;6.10;;;27.90;99.90;;;;;;5291593;28;20786;-71
2023/07/07 06:43:25;;;;;;;7.65;6.03;;;27.90;99.90;;;;;;5291605;28;20118;-71
2023/07/07 06:45:56;;;;;;;8.55;6.30;;;28.00;99.90;;;;;;5291517;28;20110;-71
2023/07/07 06:48:27;;;;;;;8.48;6.35;;;28.10;99.90;;;;;;5291565;28;20673;-71
2023/07/07 06:50:58;;;;;;;6.65;6.05;;;28.10;99.90;;;;;;5290698;28;20039;-71
2023/07/07 06:53:28;;;;;;;8.55;7.00;;;28.20;99.90;;;;;;5291059;28;20558;-71
2023/07/07 06:55:59;;;;;;;10.25;7.05;;;28.30;99.90;;;;;;5273132;28;20391;-71
2023/07/07 06:58:30;;;;;;;7.85;7.03;;;28.40;99.90;;;;;;5291249;28;20425;-71
2023/07/07 07:01:01;;;;;;;8.75;6.03;;;28.50;99.90;;;;;;5291127;28;20024;-71
2023/07/07 07:03:31;;;;;;;6.82;6.15;;;28.40;99.90;;;;;;5291129;28;20032;-71
2023/07/07 07:06:02;;;;;;;9.18;7.30;;;28.70;99.90;;;;;;5290903;28;20044;-71
2023/07/07 07:08:33;;;;;;;10.65;7.18;;;28.60;99.90;;;;;;5290912;28;20099;-72
2023/07/07 07:11:06;;;;;;;8.98;8.10;;;28.80;99.90;;;;;;5290975;28;20028;-71
2023/07/07 07:13:37;;;;;;;10.80;8.35;;;28.80;99.90;;;;;;5290866;28;20103;-71
2023/07/07 07:16:07;;;;;;;8.82;7.93;;;29.10;99.90;;;;;;5290878;28;20111;-71
2023/07/07 07:18:38;;;;;;;8.25;7.45;;;29.00;99.90;;;;;;5290850;28;20039;-71
2023/07/07 07:21:09;;;;;;;8.20;7.35;;;29.20;99.90;;;;;;5290650;28;20020;-71
2023/07/07 07:23:40;;;;;;;12.00;7.10;;;29.20;99.90;;;;;;5290628;28;20031;-71
2023/07/07 07:26:10;;;;;;;8.23;7.25;;;28.90;99.90;;;;;;5290764;28;20376;-71
2023/07/07 07:28:41;;;;;;;9.43;8.05;;;29.10;99.90;;;;;;5290948;28;20027;-71
2023/07/07 07:31:12;;;;;;;8.45;6.95;;;29.30;99.90;;;;;;5290719;28;20651;-71
2023/07/07 07:33:43;;;;;;;8.27;6.97;;;29.30;99.90;;;;;;5290477;28;20031;-71
2023/07/07 07:36:14;;;;;;;9.57;7.32;;;29.40;99.90;;;;;;5290623;28;20026;-71
2023/07/07 07:38:44;;;;;;;12.57;7.30;;;29.50;99.90;;;;;;5290528;28;20114;-71
2023/07/07 07:41:15;;;;;;;8.45;7.57;;;29.50;99.90;;;;;;5290346;28;20016;-71
2023/07/07 07:43:46;;;;;;;8.93;7.82;;;29.60;99.90;;;;;;5290288;28;20027;-71
2023/07/07 07:46:17;;;;;;;9.98;9.25;;;29.60;99.90;;;;;;5290216;28;20047;-71
2023/07/07 07:48:48;;;;;;;13.93;8.55;;;29.80;99.90;;;;;;5290261;28;20034;-71
2023/07/07 07:51:18;;;;;;;8.70;8.00;;;29.80;99.90;;;;;;5290082;28;20410;-71
2023/07/07 07:53:49;;;;;;;11.30;8.07;;;29.80;99.90;;;;;;5289758;28;20391;-72
2023/07/07 07:56:20;;;;;;;16.95;9.40;;;29.90;99.90;;;;;;5290102;28;20412;-71
2023/07/07 07:58:51;;;;;;;10.57;9.43;;;30.00;99.90;;;;;;5289982;28;20360;-71
2023/07/07 08:01:21;;;;;;;8.57;7.40;;;30.10;99.90;;;;;;5288775;28;20025;-71
2023/07/07 08:03:52;;;;;;;9.20;8.50;;;30.00;99.90;;;;;;5289893;28;20038;-71
2023/07/07 08:06:23;;;;;;;12.27;7.45;;;29.90;99.90;;;;;;5289579;28;20118;-71
2023/07/07 08:08:54;;;;;;;7.95;7.25;;;29.90;99.90;;;;;;5289683;28;20022;-71
2023/07/07 08:11:47;;;;;;;11.38;7.63;;;30.10;99.90;;;;;;5289517;28;20039;-71
2023/07/07 08:14:21;;;;;;;12.52;7.70;;;30.00;99.90;;;;;;5289626;28;20047;-71
2023/07/07 08:16:51;;;;;;;10.50;7.22;;;30.10;99.90;;;;;;5289623;28;20098;-71
2023/07/07 08:19:22;;;;;;;10.65;6.93;;;29.80;99.90;;;;;;5289547;28;20160;-71
2023/07/07 08:21:53;;;;;;;7.88;7.10;;;29.80;99.90;;;;;;5289506;28;20028;-72
2023/07/07 08:24:25;;;;;;;8.23;6.70;;;29.90;99.90;;;;;;5289354;28;20036;-71
2023/07/07 08:26:56;;;;;;;8.27;6.80;;;29.80;99.90;;;;;;5289358;28;20028;-71
2023/07/07 08:29:27;;;;;;;10.40;7.40;;;30.00;99.90;;;;;;5289557;28;20030;-71
2023/07/07 08:31:58;;;;;;;9.32;6.47;;;30.20;99.90;;;;;;5289412;28;20163;-71
2023/07/07 08:34:28;;;;;;;9.48;6.85;;;30.30;99.90;;;;;;5289346;28;20032;-71
2023/07/07 08:36:59;;;;;;;10.77;7.72;;;30.30;99.90;;;;;;5289203;28;20098;-71
2023/07/07 08:39:30;;;;;;;8.00;7.20;;;30.30;99.90;;;;;;5289190;28;20024;-71
2023/07/07 08:42:24;;;;;;;8.57;6.88;;;30.40;99.90;;;;;;5289467;28;20527;-71
2023/07/07 08:44:57;;;;;;;9.57;7.60;;;30.40;99.90;;;;;;5289304;28;20024;-72
2023/07/07 08:48:06;;;;;;;9.23;8.32;;;30.30;99.90;;;;;;5289465;28;20027;-73
2023/07/07 08:50:59;;;;;;;9.32;7.35;;;30.60;99.90;;;;;;5289212;28;20379;-71
2023/07/07 08:53:36;;;;;;;12.88;8.35;;;30.70;99.90;;;;;;5288884;28;20055;-71
2023/07/07 08:56:47;;;;;;;9.43;7.32;;;30.60;99.90;;;;;;5289184;28;20054;-71
2023/07/07 08:59:42;;;;;;;8.55;7.75;;;30.70;99.90;;;;;;5182894;28;20092;-72
2023/07/07 09:02:31;;;;;;;14.50;7.63;;;30.70;99.90;;;;;;5289152;28;20028;-71
2023/07/07 09:05:13;;;;;;;9.00;8.20;;;30.80;99.90;;;;;;5288997;28;20040;-71
2023/07/07 09:08:19;;;;;;;11.52;8.77;;;30.80;99.90;;;;;;5288968;28;20027;-71
2023/07/07 09:11:12;;;;;;;9.10;8.00;;;30.90;99.90;;;;;;5269128;28;20088;-71
2023/07/07 09:13:46;;;;;;;11.30;9.63;;;30.90;99.90;;;;;;5291924;28;20502;-71
2023/07/07 09:16:27;;;;;;;9.85;8.85;;;30.90;99.90;;;;;;5293332;28;20016;-71
2023/07/07 09:19:07;;;;;;;11.02;9.55;;;31.00;99.90;;;;;;5293262;28;20110;-71
2023/07/07 09:22:02;;;;;;;11.00;10.00;;;31.00;99.90;;;;;;5293348;28;20507;-71
2023/07/07 09:24:41;;;;;;;11.52;10.32;;;31.00;99.90;;;;;;5293040;28;20067;-71
2023/07/07 09:27:18;;;;;;;16.63;11.67;;;31.10;99.90;;;;;;5293158;28;20030;-71
2023/07/07 09:30:08;;;;;;;10.00;8.80;;;31.30;99.90;;;;;;5293142;28;20463;-71
2023/07/07 09:32:39;;;;;;;9.13;8.38;;;31.10;99.90;;;;;;5292913;28;20028;-71
2023/07/07 09:35:14;;;;;;;12.18;8.25;;;31.10;99.90;;;;;;5292871;28;20031;-71
2023/07/07 09:37:57;;;;;;;12.65;10.27;;;31.30;99.90;;;;;;5292672;28;20022;-71
2023/07/07 09:40:56;;;;;;;13.25;8.65;;;31.40;99.90;;;;;;5292758;28;20031;-71
2023/07/07 09:43:34;;;;;;;;;;;31.40;99.90;;;;;;5293150;28;20031;-71
2023/07/07 09:46:40;;;;;;;11.18;9.18;;;31.50;99.90;;;;;;5292532;28;19911;-71
2023/07/07 09:49:10;;;;;;;12.35;8.63;;;31.60;99.90;;;;;;5292502;28;20026;-71
2023/07/07 09:52:05;;;;;;;10.35;9.35;;;31.60;99.90;;;;;;5292607;28;20023;-71
2023/07/07 09:54:37;;;;;;;10.07;8.70;;;31.30;99.90;;;;;;5292491;28;20387;-71
2023/07/07 09:57:29;;;;;;;8.82;7.97;;;31.40;99.90;;;;;;5292525;28;20024;-71
2023/07/07 10:00:02;;;;;;;9.70;8.65;;;31.40;99.90;;;;;;5292593;28;20031;-71
2023/07/07 10:02:34;;;;;;;10.98;7.80;;;31.60;99.90;;;;;;5292771;28;20062;-71
2023/07/07 10:05:07;;;;;;;9.85;8.00;;;31.60;99.90;;;;;;5292264;28;20086;-71
2023/07/07 10:07:40;;;;;;;9.02;7.28;;;31.70;99.90;;;;;;5292358;28;20028;-71
2023/07/07 10:10:13;;;;;;;11.30;8.80;;;31.70;99.90;;;;;;5292156;28;20024;-71
2023/07/07 10:12:46;;;;;;;13.38;8.82;;;31.60;99.90;;;;;;5292285;28;20115;-71
2023/07/07 10:15:26;;;;;;;11.00;10.10;;;31.60;99.90;;;;;;5292270;28;20036;-71
2023/07/07 10:18:23;;;;;;;10.50;9.32;;;31.40;99.90;;;;;;5292057;28;20111;-71
2023/07/07 10:21:02;;;;;;;10.60;7.90;;;31.30;99.90;;;;;;5292023;28;20027;-71
2023/07/07 10:23:33;;;;;;;12.70;9.07;;;31.40;99.90;;;;;;5291392;28;20031;-71
2023/07/07 10:26:03;;;;;;;10.85;8.93;;;31.50;99.90;;;;;;5291034;28;20391;-71
2023/07/07 10:28:34;;;;;;;11.00;8.50;;;31.70;99.90;;;;;;5291791;28;20077;-71
2023/07/07 10:31:06;;;;;;;9.90;7.93;;;31.80;99.90;;;;;;5291711;28;20027;-71
2023/07/07 10:33:38;;;;;;;11.73;8.18;;;31.80;99.90;;;;;;5291731;28;20474;-72
2023/07/07 10:36:24;;;;;;;8.80;7.88;;;31.90;99.90;;;;;;5291638;28;20463;-71
2023/07/07 10:38:59;;;;;;;12.90;9.93;;;31.90;99.90;;;;;;5291783;28;20027;-71
2023/07/07 10:41:30;;;;;;;12.35;7.85;;;31.80;99.90;;;;;;5291537;28;20030;-71
2023/07/07 10:44:00;;;;;;;9.30;8.27;;;31.90;99.90;;;;;;5291431;28;20463;-71
2023/07/07 10:46:31;;;;;;;8.88;8.02;;;31.90;99.90;;;;;;5291251;28;20478;-71
2023/07/07 10:49:04;;;;;;;11.65;8.70;;;32.10;99.90;;;;;;5291385;28;20023;-71
2023/07/07 10:51:53;;;;;;;11.10;9.32;;;31.80;99.90;;;;;;5291651;28;20046;-71
2023/07/07 10:54:32;;;;;;;12.77;9.77;;;31.70;99.90;;;;;;5291106;28;20047;-71
2023/07/07 10:57:35;;;;;;;11.32;10.10;;;31.90;99.90;;;;;;5291258;28;20035;-71
2023/07/07 11:00:54;;;;;;;11.48;7.60;;;32.10;99.90;;;;;;5250016;28;20698;-71
2023/07/07 11:04:17;;;;;;;9.50;7.93;;;32.10;99.90;;;;;;5235182;28;20501;-71
2023/07/07 11:07:09;;;;;;;9.75;7.90;;;32.30;99.90;;;;;;5291520;28;20035;-71
2023/07/07 11:09:57;;;;;;;11.80;7.70;;;31.90;99.90;;;;;;5291201;28;20023;-71
2023/07/07 11:12:47;;;;;;;10.77;6.25;;;32.30;99.90;;;;;;5291047;28;20027;-71
2023/07/07 11:15:33;;;;;;;9.20;6.25;;;32.20;99.90;;;;;;5291079;28;20391;-71
2023/07/07 11:18:37;;;;;;;12.30;5.95;;;32.00;99.90;;;;;;5290914;28;20110;-71
2023/07/07 11:21:18;;;;;;;8.80;5.22;;;32.20;99.90;;;;;;5290892;28;20028;-71
2023/07/07 11:24:16;;;;;;;6.32;5.60;;;32.30;99.90;;;;;;5290637;28;20027;-71
2023/07/07 11:27:14;;;;;;;8.02;5.57;;;32.10;99.90;;;;;;5290741;28;20122;-71
2023/07/07 11:30:09;;;;;;;7.70;5.33;;;32.50;99.90;;;;;;5290643;28;20031;-71
2023/07/07 11:32:52;;;;;;;6.40;5.43;;;32.20;99.90;;;;;;5290249;28;20041;-71
2023/07/07 11:35:53;;;;;;;10.30;5.82;;;31.80;99.90;;;;;;5272186;28;20543;-71
2023/07/07 11:38:38;;;;;;;6.00;5.03;;;32.20;99.90;;;;;;5290539;28;20544;-71
2023/07/07 11:41:21;;;;;;;7.57;5.53;;;32.40;99.90;;;;;;5290300;28;20020;-71
2023/07/07 11:44:13;;;;;;;6.63;5.70;;;31.80;99.90;;;;;;5290803;28;20028;-71
2023/07/07 11:47:08;;;;;;;10.63;6.15;;;31.50;99.90;;;;;;5290196;28;20077;-71
2023/07/07 11:49:55;;;;;;;9.20;6.75;;;31.00;99.90;;;;;;5290249;28;20110;-70
2023/07/07 11:52:49;;;;;;;9.10;8.43;;;31.00;99.90;;;;;;5290143;28;20076;-71
2023/07/07 11:55:31;;;;;;;15.45;14.38;;;30.70;99.90;;;;;;5290132;28;20131;-71
2023/07/07 11:58:22;;;;;;;19.15;17.55;;;30.40;99.90;;;;;;5289907;28;20034;-71
2023/07/07 12:01:02;;;;;;;20.08;18.45;;;30.50;99.90;;;;;;5289918;28;20028;-71
2023/07/07 12:03:42;;;;;;;17.60;16.10;;;30.20;99.90;;;;;;5289936;28;20047;-71
2023/07/07 12:06:24;;;;;;;16.25;14.98;;;30.30;99.90;;;;;;5289801;28;20036;-71
2023/07/07 12:09:18;;;;;;;17.58;16.35;;;30.00;99.90;;;;;;5289772;28;20024;-71
2023/07/07 12:11:57;;;;;;;19.55;18.15;;;29.40;99.90;;;;;;5289576;28;20081;-71
2023/07/07 12:14:38;;;;;;;14.43;13.32;;;29.50;99.90;;;;;;5289715;28;20121;-71
2023/07/07 12:17:25;;;;;;;9.73;8.38;;;29.50;99.90;;;;;;5290004;28;20089;-71
2023/07/07 12:20:04;;;;;;;12.13;8.82;;;29.50;99.90;;;;;;5289793;28;20031;-71
2023/07/07 12:22:40;;;;;;;14.90;9.52;;;29.50;99.90;;;;;;5289710;28;20393;-71
2023/07/07 12:25:23;;;;;;;9.75;8.85;;;29.40;99.90;;;;;;5289543;28;20043;-71
2023/07/07 12:27:55;;;;;;;7.95;7.32;;;29.30;99.90;;;;;;5289618;28;20018;-71
2023/07/07 12:30:25;;;;;;;8.65;7.80;;;29.20;99.90;;;;;;5289370;28;20027;-71
2023/07/07 12:33:00;;;;;;;8.93;7.97;;;29.20;99.90;;;;;;5289377;28;20027;-71
2023/07/07 12:35:51;;;;;;;7.93;7.15;;;29.10;99.90;;;;;;5289461;28;20027;-71
2023/07/07 12:38:33;;;;;;;9.48;7.05;;;28.90;99.90;;;;;;5289454;28;20467;-71
2023/07/07 12:41:11;;;;;;;10.68;6.70;;;29.00;99.90;;;;;;5289214;28;20038;-71
2023/07/07 12:43:48;;;;;;;8.50;6.53;;;28.80;99.90;;;;;;5289361;28;20107;-71
2023/07/07 12:46:28;;;;;;;9.90;8.13;;;28.70;99.90;;;;;;5289117;28;20043;-71
2023/07/07 12:49:28;;;;;;;10.85;9.05;;;28.70;99.90;;;;;;5288618;28;20016;-71
2023/07/07 12:51:59;;;;;;;11.13;7.97;;;28.70;99.90;;;;;;5289028;28;20042;-71
2023/07/07 12:54:34;;;;;;;13.73;6.95;;;28.60;99.90;;;;;;5288739;28;20120;-71
2023/07/07 12:57:11;;;;;;;11.48;7.40;;;28.10;99.90;;;;;;5289071;28;20126;-71
2023/07/07 12:59:42;;;;;;;7.95;6.32;;;28.00;99.90;;;;;;5289083;28;20123;-71
2023/07/07 13:02:20;;;;;;;13.35;6.97;;;28.00;99.90;;;;;;5288953;28;20111;-71
2023/07/07 13:05:21;;;;;;;13.38;7.30;;;28.10;99.90;;;;;;5288933;28;20530;-71
2023/07/07 13:08:00;;;;;;;8.60;7.28;;;28.10;99.90;;;;;;5288966;28;20439;-71
2023/07/07 13:10:33;;;;;;;7.30;6.65;;;28.00;99.90;;;;;;5288699;28;20024;-71
2023/07/07 13:13:34;;;;;;;9.20;7.05;;;28.10;99.90;;;;;;5288975;28;20086;-71
2023/07/07 13:16:11;;;;;;;8.95;6.78;;;28.10;99.90;;;;;;5286529;28;20035;-71
2023/07/07 13:18:42;;;;;;;8.50;7.00;;;28.10;99.90;;;;;;5288849;28;20022;-71
2023/07/07 13:21:14;;;;;;;7.97;6.70;;;28.10;99.90;;;;;;5288948;28;20383;-71
2023/07/07 13:23:48;;;;;;;11.57;6.38;;;28.10;99.90;;;;;;5288771;28;20028;-71